Time;durP1;ratioP1;P1;durP2;ratioP2;P2;SDS_P1;SDS_P2;PMS_P1;PMS_P2;Temp;Humidity;BMP_temperature;BMP_pressure;BME280_temperature;BME280_humidity;BME280_pressure;Samples;Min_cycle;Max_cycle;Signal;HPM_P1;HPM_P2
2023/09/26 00:02:26;;;;;;;115.78;78.35;;;17.40;99.90;;;;;;5051198;28;20041;-80
2023/09/26 00:04:54;;;;;;;116.03;84.97;;;17.40;99.90;;;;;;5049447;28;20064;-79
2023/09/26 00:07:22;;;;;;;113.05;82.30;;;17.40;99.90;;;;;;5050576;28;20091;-81
2023/09/26 00:09:49;;;;;;;125.30;87.35;;;17.40;99.90;;;;;;5050722;28;20028;-80
2023/09/26 00:12:18;;;;;;;118.38;85.63;;;17.40;99.90;;;;;;5051629;28;20061;-79
2023/09/26 00:14:46;;;;;;;113.03;80.60;;;17.40;99.90;;;;;;5043593;28;20074;-77
2023/09/26 00:17:17;;;;;;;123.13;87.18;;;17.40;99.90;;;;;;5039704;28;20047;-79
2023/09/26 00:19:44;;;;;;;116.65;82.50;;;17.40;99.90;;;;;;5040493;28;20042;-78
2023/09/26 00:22:13;;;;;;;118.72;86.10;;;17.40;99.90;;;;;;5047620;28;20049;-80
2023/09/26 00:24:40;;;;;;;120.78;86.97;;;17.40;99.90;;;;;;5042479;28;20045;-79
2023/09/26 00:27:08;;;;;;;122.57;87.20;;;17.40;99.90;;;;;;5041052;28;20582;-78
2023/09/26 00:29:36;;;;;;;116.25;85.35;;;17.30;99.90;;;;;;5020890;28;20041;-79
2023/09/26 00:32:04;;;;;;;138.13;105.43;;;17.40;99.90;;;;;;5043203;28;20091;-79
2023/09/26 00:34:32;;;;;;;128.35;93.53;;;17.50;99.90;;;;;;5010960;28;20048;-79
2023/09/26 00:37:00;;;;;;;130.35;95.75;;;17.40;99.90;;;;;;5011421;28;20141;-79
2023/09/26 00:39:27;;;;;;;125.13;92.05;;;17.40;99.90;;;;;;5028312;28;20129;-79
2023/09/26 00:41:55;;;;;;;128.63;91.65;;;17.30;99.90;;;;;;5009245;28;20042;-80
2023/09/26 00:44:22;;;;;;;122.18;87.28;;;17.30;99.90;;;;;;5030851;28;20042;-78
2023/09/26 00:46:52;;;;;;;122.35;87.65;;;17.40;99.90;;;;;;5013151;28;20519;-78
2023/09/26 00:49:20;;;;;;;135.80;91.25;;;17.40;99.90;;;;;;5010988;28;20501;-78
2023/09/26 00:51:49;;;;;;;130.45;91.50;;;17.40;99.90;;;;;;5027976;28;20080;-80
2023/09/26 00:54:17;;;;;;;135.20;93.97;;;17.40;99.90;;;;;;5025062;28;20111;-78
2023/09/26 00:56:45;;;;;;;129.88;91.82;;;17.50;99.90;;;;;;5030198;28;20048;-78
2023/09/26 00:59:12;;;;;;;122.35;88.03;;;17.50;99.90;;;;;;5032373;28;20049;-79
2023/09/26 01:01:41;;;;;;;125.97;89.18;;;17.50;99.90;;;;;;5010567;28;20516;-79
2023/09/26 01:04:09;;;;;;;127.03;89.93;;;17.50;99.90;;;;;;5030524;28;20057;-80
2023/09/26 01:06:36;;;;;;;118.22;88.78;;;17.50;99.90;;;;;;5010674;28;20508;-77
2023/09/26 01:09:10;;;;;;;117.72;87.43;;;17.70;99.90;;;;;;5019351;28;20050;-80
2023/09/26 01:11:37;;;;;;;125.15;89.07;;;17.60;99.90;;;;;;5021865;28;20128;-78
2023/09/26 01:14:06;;;;;;;116.88;86.90;;;17.50;99.90;;;;;;5027551;28;20042;-78
2023/09/26 01:16:34;;;;;;;122.47;90.45;;;17.50;99.90;;;;;;5022920;28;20150;-77
2023/09/26 01:19:02;;;;;;;122.65;90.88;;;17.40;99.90;;;;;;5002851;28;20037;-81
2023/09/26 01:21:30;;;;;;;128.90;91.18;;;17.40;99.90;;;;;;5009133;28;20038;-79
2023/09/26 01:23:59;;;;;;;132.63;90.65;;;17.40;99.90;;;;;;5025002;28;20033;-79
2023/09/26 01:26:26;;;;;;;201.48;103.13;;;17.50;99.90;;;;;;5030644;28;20129;-77
2023/09/26 01:28:56;;;;;;;250.40;110.13;;;17.50;99.90;;;;;;5030715;28;20074;-77
2023/09/26 01:31:23;;;;;;;243.27;108.03;;;17.50;99.90;;;;;;5031584;28;20136;-80
2023/09/26 01:33:51;;;;;;;237.93;105.50;;;17.50;99.90;;;;;;5012230;28;20101;-78
2023/09/26 01:36:18;;;;;;;259.08;106.43;;;17.40;99.90;;;;;;5025634;28;20077;-79
2023/09/26 01:38:46;;;;;;;267.60;110.40;;;17.50;99.90;;;;;;5030900;28;20037;-80
2023/09/26 01:41:15;;;;;;;256.63;108.60;;;17.40;99.90;;;;;;5029557;28;20141;-81
2023/09/26 01:43:42;;;;;;;273.27;112.40;;;17.40;99.90;;;;;;5011858;28;20476;-78
2023/09/26 01:46:10;;;;;;;262.90;112.43;;;17.50;99.90;;;;;;5029737;28;20039;-79
2023/09/26 01:48:37;;;;;;;263.67;110.97;;;17.40;99.90;;;;;;5012370;28;20489;-78
2023/09/26 01:51:06;;;;;;;271.60;112.07;;;17.50;99.90;;;;;;5007965;28;20046;-79
2023/09/26 01:53:34;;;;;;;270.17;114.75;;;17.50;99.90;;;;;;5028954;28;20112;-79
2023/09/26 01:56:03;;;;;;;267.98;112.38;;;17.60;99.90;;;;;;5028222;28;20051;-79
2023/09/26 01:58:32;;;;;;;265.30;113.03;;;17.60;99.90;;;;;;5011929;28;20088;-79
2023/09/26 02:01:00;;;;;;;256.52;112.47;;;17.50;99.90;;;;;;5015877;28;20076;-80
2023/09/26 02:03:27;;;;;;;266.42;112.47;;;17.60;99.90;;;;;;5012417;28;20156;-78
2023/09/26 02:05:58;;;;;;;255.02;109.70;;;17.50;99.90;;;;;;5028339;28;20124;-80
2023/09/26 02:08:26;;;;;;;249.93;109.95;;;17.50;99.90;;;;;;5035057;28;20060;-78
2023/09/26 02:10:53;;;;;;;246.38;110.90;;;17.50;99.90;;;;;;5012336;28;20467;-78
2023/09/26 02:13:21;;;;;;;234.50;107.35;;;17.50;99.90;;;;;;5010888;28;20522;-79
2023/09/26 02:15:50;;;;;;;236.23;108.10;;;17.50;99.90;;;;;;5030112;28;20083;-78
2023/09/26 02:18:17;;;;;;;249.23;111.85;;;17.50;99.90;;;;;;5029342;28;20045;-79
2023/09/26 02:20:45;;;;;;;253.00;108.97;;;17.50;99.90;;;;;;5009384;28;20057;-77
2023/09/26 02:23:12;;;;;;;260.35;109.07;;;17.50;99.90;;;;;;5028744;28;20092;-77
2023/09/26 02:25:40;;;;;;;284.58;115.65;;;17.50;99.90;;;;;;5027710;28;20058;-78
2023/09/26 02:28:08;;;;;;;280.33;112.90;;;17.50;99.90;;;;;;5030004;28;20077;-80
2023/09/26 02:30:35;;;;;;;282.35;115.00;;;17.50;99.90;;;;;;5012556;28;20140;-79
2023/09/26 02:33:04;;;;;;;270.15;112.80;;;17.40;99.90;;;;;;5029037;28;20136;-79
2023/09/26 02:35:32;;;;;;;274.52;115.35;;;17.50;99.90;;;;;;5029558;28;20136;-79
2023/09/26 02:37:59;;;;;;;278.60;112.88;;;17.50;99.90;;;;;;5029924;28;20484;-80
2023/09/26 02:40:27;;;;;;;267.48;110.60;;;17.40;99.90;;;;;;5028401;28;20152;-78
2023/09/26 02:42:54;;;;;;;254.75;105.57;;;17.50;99.90;;;;;;5030335;28;20033;-81
2023/09/26 02:45:23;;;;;;;246.15;105.05;;;17.40;99.90;;;;;;5037004;28;20053;-79
2023/09/26 02:47:50;;;;;;;244.98;104.18;;;17.40;99.90;;;;;;5027531;28;20044;-79
2023/09/26 02:50:21;;;;;;;241.68;103.93;;;17.40;99.90;;;;;;5028559;28;20128;-79
2023/09/26 02:52:48;;;;;;;245.52;102.05;;;17.40;99.90;;;;;;5028617;28;20049;-79
2023/09/26 02:55:15;;;;;;;236.38;97.93;;;17.40;99.90;;;;;;5011526;28;20044;-78
2023/09/26 02:57:43;;;;;;;233.35;99.75;;;17.40;99.90;;;;;;5029748;28;20044;-79
2023/09/26 03:00:16;;;;;;;225.23;98.03;;;17.40;99.90;;;;;;5028815;28;20050;-78
2023/09/26 03:02:44;;;;;;;225.50;99.10;;;17.40;99.90;;;;;;5027804;28;20040;-79
2023/09/26 03:05:12;;;;;;;243.40;99.53;;;17.40;99.90;;;;;;5034760;28;20041;-80
2023/09/26 03:07:42;;;;;;;236.32;100.82;;;17.40;99.90;;;;;;5027636;28;20047;-79
2023/09/26 03:10:10;;;;;;;231.05;98.53;;;17.40;99.90;;;;;;5027844;28;20037;-77
2023/09/26 03:12:37;;;;;;;242.70;103.50;;;17.40;99.90;;;;;;5009932;28;20052;-80
2023/09/26 03:15:07;;;;;;;246.88;103.07;;;17.30;99.90;;;;;;5006838;28;20120;-78
2023/09/26 03:17:34;;;;;;;194.70;92.10;;;17.30;99.90;;;;;;5006413;28;20067;-78
2023/09/26 03:20:06;;;;;;;223.60;98.97;;;17.30;99.90;;;;;;5028213;28;20047;-77
2023/09/26 03:22:34;;;;;;;170.20;86.18;;;17.30;99.90;;;;;;5007401;28;20038;-80
2023/09/26 03:25:04;;;;;;;139.30;78.38;;;17.30;99.90;;;;;;5011375;28;20057;-79
2023/09/26 03:27:33;;;;;;;152.15;80.28;;;17.30;99.90;;;;;;5026551;28;20497;-79
2023/09/26 03:30:00;;;;;;;147.80;81.75;;;17.30;99.90;;;;;;5007675;28;20132;-80
2023/09/26 03:32:29;;;;;;;163.75;85.43;;;17.30;99.90;;;;;;5035897;28;20532;-79
2023/09/26 03:34:56;;;;;;;127.30;75.30;;;17.30;99.90;;;;;;5028142;28;20030;-80
2023/09/26 03:37:25;;;;;;;138.40;76.80;;;17.20;99.90;;;;;;5009064;28;20045;-80
2023/09/26 03:39:53;;;;;;;131.27;76.68;;;17.10;99.90;;;;;;5029401;28;20048;-79
2023/09/26 03:42:23;;;;;;;130.68;75.32;;;17.10;99.90;;;;;;5026605;28;20564;-79
2023/09/26 03:44:50;;;;;;;131.82;77.28;;;17.00;99.90;;;;;;5028247;28;20108;-79
2023/09/26 03:47:18;;;;;;;139.18;77.50;;;17.00;99.90;;;;;;5028303;28;20044;-79
2023/09/26 03:49:45;;;;;;;153.13;80.93;;;17.00;99.90;;;;;;5027281;28;20121;-80
2023/09/26 03:52:13;;;;;;;157.60;80.38;;;16.90;99.90;;;;;;5027943;28;20505;-80
2023/09/26 03:54:40;;;;;;;153.75;78.80;;;16.90;99.90;;;;;;5027136;28;20068;-79
2023/09/26 03:57:08;;;;;;;148.23;77.95;;;16.90;99.90;;;;;;5027042;28;20504;-78
2023/09/26 03:59:37;;;;;;;149.20;80.20;;;16.80;99.90;;;;;;5027201;28;20103;-79
2023/09/26 04:02:04;;;;;;;153.30;80.93;;;16.80;99.90;;;;;;5010201;28;20461;-80
2023/09/26 04:04:32;;;;;;;154.15;81.30;;;16.80;99.90;;;;;;5027754;28;20629;-80
2023/09/26 04:07:00;;;;;;;148.60;79.57;;;16.80;99.90;;;;;;5027435;28;20551;-79
2023/09/26 04:09:27;;;;;;;137.07;77.32;;;16.80;99.90;;;;;;5026766;28;20045;-79
2023/09/26 04:11:55;;;;;;;138.23;76.72;;;16.80;99.90;;;;;;5027004;28;20048;-81
2023/09/26 04:14:22;;;;;;;135.77;75.70;;;16.80;99.90;;;;;;5017877;28;20045;-80
2023/09/26 04:16:52;;;;;;;131.63;73.25;;;16.90;99.90;;;;;;5027064;28;20041;-79
2023/09/26 04:19:20;;;;;;;126.50;72.32;;;16.90;99.90;;;;;;5027319;28;20053;-80
2023/09/26 04:21:47;;;;;;;117.55;71.72;;;16.90;99.90;;;;;;5028184;28;20043;-80
2023/09/26 04:24:15;;;;;;;117.40;71.05;;;17.00;99.90;;;;;;5009280;28;20089;-78
2023/09/26 04:26:42;;;;;;;124.05;69.03;;;17.00;99.90;;;;;;5032762;28;20097;-80
2023/09/26 04:29:11;;;;;;;127.70;73.40;;;17.10;99.90;;;;;;5042583;28;20239;-79
2023/09/26 04:31:38;;;;;;;130.15;70.90;;;17.00;99.90;;;;;;5039689;28;20041;-79
2023/09/26 04:34:07;;;;;;;128.82;70.15;;;17.10;99.90;;;;;;5034311;28;20077;-80
2023/09/26 04:36:35;;;;;;;128.57;70.82;;;17.10;99.90;;;;;;5026561;28;20137;-79
2023/09/26 04:39:02;;;;;;;125.82;68.60;;;17.10;99.90;;;;;;5026193;28;20125;-79
2023/09/26 04:41:30;;;;;;;128.27;71.40;;;17.10;99.90;;;;;;5018596;28;20452;-79
2023/09/26 04:43:57;;;;;;;128.13;70.20;;;17.10;99.90;;;;;;5027777;28;20046;-80
2023/09/26 04:46:25;;;;;;;135.57;73.45;;;17.10;99.90;;;;;;5027036;28;20433;-79
2023/09/26 04:48:52;;;;;;;152.25;75.15;;;17.10;99.90;;;;;;5025714;28;20069;-79
2023/09/26 04:51:21;;;;;;;148.98;73.15;;;17.20;99.90;;;;;;5027144;28;20041;-81
2023/09/26 04:53:49;;;;;;;147.02;74.40;;;17.20;99.90;;;;;;5008502;28;20065;-79
2023/09/26 04:56:16;;;;;;;134.40;71.60;;;17.20;99.90;;;;;;5028562;28;20037;-80
2023/09/26 04:58:44;;;;;;;154.60;73.50;;;17.10;99.90;;;;;;5035804;28;20049;-78
2023/09/26 05:01:13;;;;;;;149.20;75.30;;;17.00;99.90;;;;;;5032417;28;20069;-78
2023/09/26 05:03:42;;;;;;;140.73;72.25;;;17.00;99.90;;;;;;5031854;28;20984;-77
2023/09/26 05:06:10;;;;;;;139.32;73.18;;;17.00;99.90;;;;;;5031137;28;20607;-79
2023/09/26 05:08:40;;;;;;;155.85;75.93;;;17.00;99.90;;;;;;5030962;28;20097;-78
2023/09/26 05:11:07;;;;;;;151.50;73.95;;;17.00;99.90;;;;;;5031067;28;20133;-78
2023/09/26 05:13:35;;;;;;;159.13;76.40;;;17.10;99.90;;;;;;5033583;28;20049;-82
2023/09/26 05:16:03;;;;;;;144.23;71.72;;;17.10;99.90;;;;;;5038984;28;20196;-79
2023/09/26 05:18:31;;;;;;;147.15;72.35;;;17.10;99.90;;;;;;5038771;28;20045;-79
2023/09/26 05:20:59;;;;;;;155.35;73.85;;;17.20;99.90;;;;;;5036696;28;20050;-80
2023/09/26 05:23:29;;;;;;;169.23;83.63;;;17.20;99.90;;;;;;5034381;28;20037;-78
2023/09/26 05:26:05;;;;;;;164.23;76.38;;;17.20;99.90;;;;;;5032607;28;20046;-79
2023/09/26 05:28:32;;;;;;;155.23;72.82;;;17.20;99.90;;;;;;5032764;28;20432;-79
2023/09/26 05:31:00;;;;;;;143.93;69.90;;;17.30;99.90;;;;;;5031850;28;20033;-81
2023/09/26 05:33:27;;;;;;;149.95;70.32;;;17.30;99.90;;;;;;5031179;28;20050;-80
2023/09/26 05:35:56;;;;;;;138.05;67.82;;;17.30;99.90;;;;;;5029868;28;20168;-81
2023/09/26 05:38:25;;;;;;;130.52;64.57;;;17.40;99.90;;;;;;5029502;28;20065;-81
2023/09/26 05:40:53;;;;;;;126.60;65.75;;;17.40;99.90;;;;;;5031316;28;20092;-81
2023/09/26 05:43:22;;;;;;;128.00;66.57;;;17.40;99.90;;;;;;5013018;28;20068;-80
2023/09/26 05:45:51;;;;;;;129.70;65.95;;;17.40;99.90;;;;;;5031269;28;20124;-79
2023/09/26 05:48:19;;;;;;;123.60;67.18;;;17.40;99.90;;;;;;5030186;28;20038;-80
2023/09/26 05:50:48;;;;;;;107.20;59.10;;;17.50;99.90;;;;;;5030494;28;20060;-79
2023/09/26 05:53:17;;;;;;;107.47;60.85;;;17.60;99.90;;;;;;5032644;28;20037;-78
2023/09/26 05:55:45;;;;;;;94.65;55.55;;;17.60;99.90;;;;;;5021659;28;20444;-80
2023/09/26 05:58:12;;;;;;;91.38;53.05;;;17.70;99.90;;;;;;5034615;28;20055;-78
2023/09/26 06:00:42;;;;;;;90.05;52.17;;;17.70;99.90;;;;;;5030337;28;20173;-78
2023/09/26 06:03:10;;;;;;;92.40;53.03;;;17.70;99.90;;;;;;5031533;28;20053;-79
2023/09/26 06:05:38;;;;;;;89.68;52.80;;;17.70;99.90;;;;;;5012109;28;20045;-78
2023/09/26 06:08:06;;;;;;;80.30;50.40;;;17.80;99.90;;;;;;5030693;28;20669;-80
2023/09/26 06:10:33;;;;;;;84.70;52.15;;;17.90;99.90;;;;;;5031414;28;20488;-80
2023/09/26 06:13:01;;;;;;;80.75;49.40;;;18.00;99.90;;;;;;5030529;28;20045;-80
2023/09/26 06:15:30;;;;;;;86.50;50.15;;;18.10;99.90;;;;;;5031105;28;20042;-79
2023/09/26 06:18:00;;;;;;;88.38;53.20;;;18.10;99.90;;;;;;5030520;28;20068;-80
2023/09/26 06:20:28;;;;;;;91.70;53.00;;;18.10;99.90;;;;;;5029748;28;20048;-77
2023/09/26 06:22:56;;;;;;;103.07;57.13;;;18.30;99.90;;;;;;5029686;28;20053;-80
2023/09/26 06:25:23;;;;;;;99.15;55.92;;;18.30;99.90;;;;;;5029249;28;20072;-79
2023/09/26 06:27:52;;;;;;;92.78;51.58;;;18.40;99.90;;;;;;5030474;28;20053;-78
2023/09/26 06:30:19;;;;;;;88.38;51.67;;;18.40;99.90;;;;;;5028754;28;20070;-82
2023/09/26 06:32:47;;;;;;;89.70;54.88;;;18.50;99.90;;;;;;5011214;28;20062;-79
2023/09/26 06:35:16;;;;;;;78.93;51.03;;;18.60;99.90;;;;;;5010972;28;20056;-80
2023/09/26 06:37:43;;;;;;;81.18;51.60;;;18.60;99.90;;;;;;5029283;28;20050;-80
2023/09/26 06:40:12;;;;;;;79.90;53.03;;;18.70;99.90;;;;;;5029437;28;20046;-79
2023/09/26 06:42:39;;;;;;;79.18;50.85;;;18.80;99.90;;;;;;5029831;28;20042;-79
2023/09/26 06:45:08;;;;;;;78.03;47.03;;;18.80;99.90;;;;;;5012059;28;20046;-78
2023/09/26 06:47:35;;;;;;;65.32;45.33;;;18.80;99.90;;;;;;5027223;28;20104;-80
2023/09/26 06:50:05;;;;;;;67.85;44.35;;;18.90;99.90;;;;;;5029898;28;20057;-80
2023/09/26 06:52:34;;;;;;;67.47;42.13;;;18.90;99.90;;;;;;5029442;28;20432;-79
2023/09/26 06:55:09;;;;;;;60.08;41.20;;;18.80;99.90;;;;;;5029699;28;20484;-80
2023/09/26 06:57:39;;;;;;;62.17;42.95;;;18.80;99.90;;;;;;5011053;28;20115;-84
2023/09/26 07:00:12;;;;;;;58.78;41.80;;;18.90;99.90;;;;;;5023382;28;20037;-82
2023/09/26 07:02:40;;;;;;;59.58;41.92;;;19.10;99.90;;;;;;5012372;28;20037;-82
2023/09/26 07:05:09;;;;;;;60.50;42.90;;;19.20;99.90;;;;;;5026455;28;20064;-81
2023/09/26 07:07:38;;;;;;;66.65;44.22;;;19.20;99.90;;;;;;5036721;28;20108;-80
2023/09/26 07:10:10;;;;;;;69.13;45.85;;;19.20;99.90;;;;;;5030445;28;20068;-81
2023/09/26 07:12:38;;;;;;;60.08;43.78;;;19.30;99.90;;;;;;5029012;28;20254;-81
2023/09/26 07:15:13;;;;;;;57.20;42.40;;;19.40;99.90;;;;;;5028103;28;20053;-81
2023/09/26 07:17:40;;;;;;;58.27;42.33;;;19.60;99.90;;;;;;5028326;28;20060;-83
2023/09/26 07:20:13;;;;;;;58.13;42.80;;;19.80;99.90;;;;;;5030759;28;20551;-82
2023/09/26 07:22:42;;;;;;;59.00;42.45;;;20.00;99.90;;;;;;5029679;28;20152;-80
2023/09/26 07:25:12;;;;;;;68.43;49.33;;;20.20;99.90;;;;;;5029089;28;20107;-79
2023/09/26 07:27:40;;;;;;;54.92;39.88;;;20.40;99.90;;;;;;5011004;28;20049;-80
2023/09/26 07:30:10;;;;;;;53.92;39.60;;;20.60;99.90;;;;;;5028102;28;20121;-80
2023/09/26 07:32:37;;;;;;;57.53;40.13;;;20.60;99.90;;;;;;5025312;28;20046;-81
2023/09/26 07:35:06;;;;;;;53.80;39.83;;;20.80;99.90;;;;;;5011249;28;20049;-82
2023/09/26 07:37:33;;;;;;;55.42;38.05;;;21.10;99.90;;;;;;5019923;28;20037;-81
2023/09/26 07:40:05;;;;;;;53.47;38.63;;;21.20;1.00;;;;;;5044342;28;20041;-81
2023/09/26 07:42:35;;;;;;;52.15;39.47;;;21.20;1.00;;;;;;5030709;28;20373;-82
2023/09/26 07:45:03;;;;;;;55.47;39.85;;;21.30;1.00;;;;;;5030691;28;20126;-80
2023/09/26 07:47:30;;;;;;;53.25;38.42;;;21.20;1.00;;;;;;5046941;28;20049;-81
2023/09/26 07:49:58;;;;;;;55.78;42.45;;;21.30;1.00;;;;;;5043222;28;20033;-81
2023/09/26 07:52:27;;;;;;;57.47;40.40;;;21.40;1.00;;;;;;5031304;28;20049;-81
2023/09/26 07:54:54;;;;;;;56.60;39.63;;;21.40;64.60;;;;;;5031234;28;20041;-80
2023/09/26 07:57:23;;;;;;;60.08;39.38;;;21.40;1.00;;;;;;5049483;28;20045;-81
2023/09/26 07:59:51;;;;;;;47.88;37.05;;;21.40;1.00;;;;;;5049761;28;20052;-80
2023/09/26 08:02:18;;;;;;;45.28;35.63;;;21.30;99.90;;;;;;5030075;28;20095;-79
2023/09/26 08:04:46;;;;;;;49.30;36.42;;;21.30;1.00;;;;;;5047117;28;20041;-80
2023/09/26 08:07:13;;;;;;;44.65;34.63;;;21.40;99.90;;;;;;5048537;28;20645;-82
2023/09/26 08:09:41;;;;;;;53.88;37.70;;;21.50;99.90;;;;;;5048977;28;20098;-80
2023/09/26 08:12:09;;;;;;;56.35;36.30;;;21.50;1.00;;;;;;5030309;28;20747;-81
2023/09/26 08:14:38;;;;;;;49.50;35.10;;;21.60;99.90;;;;;;5029801;28;20149;-81
2023/09/26 08:17:06;;;;;;;48.10;34.08;;;21.60;99.90;;;;;;5030665;28;20033;-80
2023/09/26 08:19:36;;;;;;;42.47;33.95;;;21.60;1.00;;;;;;5048216;28;20064;-81
2023/09/26 08:22:03;;;;;;;53.88;36.22;;;21.60;1.00;;;;;;5045676;28;20491;-79
2023/09/26 08:24:33;;;;;;;48.38;33.38;;;21.70;1.00;;;;;;5047512;28;20037;-81
2023/09/26 08:27:00;;;;;;;52.28;34.97;;;21.80;1.00;;;;;;5028903;28;20069;-80
2023/09/26 08:29:28;;;;;;;45.60;32.13;;;21.80;99.90;;;;;;5049009;28;20064;-82
2023/09/26 08:31:57;;;;;;;48.15;32.60;;;21.90;99.90;;;;;;5030629;28;20044;-81
2023/09/26 08:34:25;;;;;;;40.30;31.20;;;21.80;39.40;;;;;;5049285;28;20044;-79
2023/09/26 08:36:54;;;;;;;40.17;31.83;;;21.80;1.00;;;;;;5049778;28;20096;-80
2023/09/26 08:39:22;;;;;;;49.55;31.92;;;21.80;1.00;;;;;;5032568;28;20382;-81
2023/09/26 08:41:52;;;;;;;38.63;29.20;;;21.80;1.00;;;;;;5049051;28;20040;-82
2023/09/26 08:44:20;;;;;;;46.28;31.30;;;21.80;1.00;;;;;;5081278;22;20045;-75
2023/09/26 08:46:48;;;;;;;41.63;30.83;;;21.90;1.00;;;;;;5064064;28;20047;-76
2023/09/26 08:49:17;;;;;;;42.65;31.65;;;21.90;99.90;;;;;;5060586;28;20056;-75
2023/09/26 08:51:45;;;;;;;42.80;30.65;;;21.90;1.00;;;;;;5058596;28;20033;-76
2023/09/26 08:54:13;;;;;;;42.03;30.70;;;21.90;1.00;;;;;;5059280;28;20045;-77
2023/09/26 08:56:41;;;;;;;43.60;30.75;;;21.80;1.00;;;;;;5063607;28;20076;-77
2023/09/26 08:59:09;;;;;;;49.35;33.47;;;21.80;1.00;;;;;;5087467;28;20052;-78
2023/09/26 09:01:36;;;;;;;36.25;29.38;;;21.80;1.00;;;;;;5061877;28;20048;-77
2023/09/26 09:04:09;;;;;;;37.88;28.92;;;22.00;1.00;;;;;;5063167;28;20121;-77
2023/09/26 09:06:43;;;;;;;38.33;29.02;;;22.00;99.90;;;;;;5058921;28;20047;-77
2023/09/26 09:09:13;;;;;;;36.58;28.30;;;21.90;99.90;;;;;;5077664;28;20045;-77
2023/09/26 09:11:41;;;;;;;35.55;27.42;;;21.90;1.00;;;;;;5061080;28;20040;-75
2023/09/26 09:14:09;;;;;;;39.75;27.77;;;22.00;1.00;;;;;;5060920;28;20081;-75
2023/09/26 09:16:36;;;;;;;37.28;30.02;;;22.00;1.00;;;;;;5081058;28;20061;-75
2023/09/26 09:19:06;;;;;;;35.08;28.75;;;22.00;1.00;;;;;;5046713;28;20045;-76
2023/09/26 09:21:34;;;;;;;36.22;26.88;;;22.00;1.00;;;;;;5058408;28;20132;-77
2023/09/26 09:24:05;;;;;;;34.25;25.75;;;22.10;99.90;;;;;;5079007;28;20037;-76
2023/09/26 09:26:35;;;;;;;31.60;24.52;;;22.20;99.90;;;;;;5069814;28;20508;-77
2023/09/26 09:29:20;;;;;;;33.67;24.13;;;22.20;1.00;;;;;;5067313;28;20114;-76
2023/09/26 09:31:48;;;;;;;32.78;21.67;;;22.40;1.00;;;;;;5041730;28;20057;-77
2023/09/26 09:34:16;;;;;;;31.88;21.95;;;22.50;99.90;;;;;;5044885;28;20103;-76
2023/09/26 09:36:45;;;;;;;29.70;21.73;;;22.60;99.90;;;;;;5073936;28;20064;-75
2023/09/26 09:39:15;;;;;;;49.63;23.60;;;22.60;1.00;;;;;;5059806;28;20052;-76
2023/09/26 09:41:42;;;;;;;33.05;22.17;;;22.60;1.00;;;;;;5074151;28;20067;-77
2023/09/26 09:44:10;;;;;;;30.42;22.42;;;22.80;1.00;;;;;;5043756;28;20094;-77
2023/09/26 09:46:39;;;;;;;27.50;19.42;;;22.90;1.00;;;;;;5064050;28;20095;-77
2023/09/26 09:49:11;;;;;;;32.85;20.70;;;22.80;1.00;;;;;;5066497;28;20041;-76
2023/09/26 09:51:42;;;;;;;33.17;24.30;;;22.80;1.00;;;;;;5044800;28;20040;-77
2023/09/26 09:54:17;;;;;;;27.85;20.52;;;22.90;1.00;;;;;;5061314;28;20196;-77
2023/09/26 09:56:47;;;;;;;33.30;21.35;;;23.10;1.00;;;;;;5047154;28;20120;-79
2023/09/26 09:59:17;;;;;;;29.40;20.35;;;23.20;1.00;;;;;;5047144;28;20566;-76
2023/09/26 10:01:49;;;;;;;34.95;21.55;;;23.30;1.00;;;;;;5080254;28;20073;-77
2023/09/26 10:04:17;;;;;;;35.55;24.42;;;23.30;1.00;;;;;;5059996;28;20037;-75
2023/09/26 10:06:45;;;;;;;38.17;24.55;;;23.60;1.00;;;;;;5055437;28;20044;-76
2023/09/26 10:09:20;;;;;;;34.63;25.25;;;23.60;1.00;;;;;;5051844;28;20131;-76
2023/09/26 10:11:49;;;;;;;33.25;20.52;;;23.70;99.90;;;;;;5067648;28;20041;-74
2023/09/26 10:14:22;;;;;;;35.38;20.48;;;23.80;99.90;;;;;;5072304;28;20128;-77
2023/09/26 10:16:50;;;;;;;31.20;20.83;;;23.50;99.90;;;;;;5056837;28;20053;-77
2023/09/26 10:19:18;;;;;;;34.92;20.85;;;23.40;99.90;;;;;;5046779;28;20052;-77
2023/09/26 10:21:46;;;;;;;34.50;22.70;;;23.50;99.90;;;;;;5072147;28;20055;-76
2023/09/26 10:24:29;;;;;;;32.60;18.75;;;23.70;99.90;;;;;;5067809;28;20041;-75
2023/09/26 10:27:04;;;;;;;30.20;18.13;;;23.90;99.90;;;;;;5072961;28;20604;-78
2023/09/26 10:29:33;;;;;;;30.98;19.02;;;24.10;99.90;;;;;;5073846;28;20055;-76
2023/09/26 10:32:05;;;;;;;32.65;19.10;;;24.00;99.90;;;;;;5059733;28;20543;-76
2023/09/26 10:34:45;;;;;;;28.27;16.30;;;23.80;99.90;;;;;;5078911;28;20108;-76
2023/09/26 10:37:25;;;;;;;15.80;9.20;;;23.90;99.90;;;;;;5051180;28;20043;-78
2023/09/26 10:39:57;;;;;;;16.25;8.15;;;23.90;1.00;;;;;;5052362;28;20048;-78
2023/09/26 10:42:26;;;;;;;19.73;8.48;;;24.00;1.00;;;;;;5043504;28;20041;-79
2023/09/26 10:44:55;;;;;;;15.20;7.68;;;24.10;1.00;;;;;;5045999;28;20495;-77
2023/09/26 10:47:24;;;;;;;16.75;7.78;;;24.10;1.00;;;;;;5045617;28;20052;-78
2023/09/26 10:49:52;;;;;;;17.77;9.30;;;24.10;1.00;;;;;;5038549;28;20086;-77
2023/09/26 10:52:20;;;;;;;19.92;8.43;;;24.20;1.00;;;;;;5050987;28;20051;-76
2023/09/26 10:54:48;;;;;;;14.30;8.15;;;24.20;1.00;;;;;;5048443;28;20502;-76
2023/09/26 10:57:23;;;;;;;15.32;7.28;;;24.30;1.00;;;;;;5062652;28;20063;-76
2023/09/26 10:59:51;;;;;;;15.93;7.85;;;24.30;1.00;;;;;;5060356;28;20044;-78
2023/09/26 11:02:18;;;;;;;21.50;8.02;;;24.40;1.00;;;;;;5079879;28;20579;-76
2023/09/26 11:04:47;;;;;;;21.38;8.05;;;24.50;1.00;;;;;;5040562;28;20041;-77
2023/09/26 11:07:16;;;;;;;17.60;8.65;;;24.40;1.00;;;;;;5043536;28;20071;-75
2023/09/26 11:09:44;;;;;;;22.77;8.68;;;24.30;1.00;;;;;;5072445;28;20069;-77
2023/09/26 11:12:13;;;;;;;16.55;8.73;;;24.40;1.00;;;;;;5073443;28;20058;-74
2023/09/26 11:14:45;;;;;;;15.25;8.18;;;24.40;1.00;;;;;;5068636;28;20354;-79
2023/09/26 11:17:13;;;;;;;16.60;8.27;;;24.50;1.00;;;;;;5064129;28;20040;-78
2023/09/26 11:19:44;;;;;;;17.38;8.20;;;24.30;1.00;;;;;;5044445;28;20043;-76
2023/09/26 11:22:12;;;;;;;15.50;8.02;;;24.20;1.00;;;;;;5046570;28;20120;-78
2023/09/26 11:24:40;;;;;;;17.65;9.15;;;24.30;1.00;;;;;;5047589;28;20044;-78
2023/09/26 11:27:08;;;;;;;17.88;9.40;;;24.30;1.00;;;;;;5045161;28;20097;-79
2023/09/26 11:29:36;;;;;;;17.42;8.98;;;24.30;1.00;;;;;;5067637;28;20048;-77
2023/09/26 11:32:06;;;;;;;16.67;8.77;;;24.40;1.00;;;;;;5058648;28;20045;-79
2023/09/26 11:34:36;;;;;;;15.90;9.05;;;24.50;1.00;;;;;;5033057;28;20667;-78
2023/09/26 11:37:07;;;;;;;16.67;8.55;;;24.50;1.00;;;;;;5034407;28;20544;-76
2023/09/26 11:39:34;;;;;;;18.05;9.05;;;24.50;1.00;;;;;;5038881;28;20127;-76
2023/09/26 11:42:06;;;;;;;16.50;9.32;;;24.50;1.00;;;;;;5043245;28;20044;-75
2023/09/26 11:44:33;;;;;;;17.60;9.38;;;24.50;1.00;;;;;;5029499;28;20052;-79
2023/09/26 11:47:03;;;;;;;18.85;9.02;;;24.50;1.00;;;;;;5036183;28;20041;-79
2023/09/26 11:49:32;;;;;;;14.85;9.27;;;24.40;1.00;;;;;;5044521;28;20084;-77
2023/09/26 11:52:01;;;;;;;12.27;8.45;;;24.30;1.00;;;;;;5060762;28;20037;-78
2023/09/26 11:54:29;;;;;;;17.42;9.15;;;24.30;1.00;;;;;;5042334;28;20072;-78
2023/09/26 11:56:57;;;;;;;16.70;10.13;;;24.20;1.00;;;;;;5067114;28;20033;-76
2023/09/26 11:59:25;;;;;;;17.90;9.43;;;24.20;1.00;;;;;;5041023;28;20033;-78
2023/09/26 12:01:54;;;;;;;15.30;8.63;;;24.30;1.00;;;;;;5043402;28;20048;-79
2023/09/26 12:04:23;;;;;;;15.48;9.55;;;24.30;1.00;;;;;;5068167;28;20094;-77
2023/09/26 12:06:52;;;;;;;17.63;9.50;;;24.30;1.00;;;;;;5044180;28;20046;-77
2023/09/26 12:09:21;;;;;;;11.00;8.68;;;24.40;1.00;;;;;;5061365;28;20044;-77
2023/09/26 12:11:50;;;;;;;15.80;8.65;;;24.50;1.00;;;;;;5065735;28;20143;-77
2023/09/26 12:14:20;;;;;;;19.35;9.55;;;24.50;1.00;;;;;;5055118;28;20045;-75
2023/09/26 12:16:50;;;;;;;15.18;9.30;;;24.60;1.00;;;;;;5046879;28;20044;-78
2023/09/26 12:19:19;;;;;;;15.57;9.27;;;24.70;1.00;;;;;;5042908;28;20147;-77
2023/09/26 12:21:47;;;;;;;16.02;8.77;;;24.80;1.00;;;;;;5059538;28;20049;-77
2023/09/26 12:24:27;;;;;;;14.43;8.93;;;24.70;1.00;;;;;;5047273;28;20044;-74
2023/09/26 12:26:56;;;;;;;17.42;9.20;;;24.80;1.00;;;;;;5057441;28;20063;-78
2023/09/26 12:29:23;;;;;;;16.75;9.20;;;24.80;1.00;;;;;;5057142;28;20618;-76
2023/09/26 12:31:51;;;;;;;19.25;10.60;;;24.90;1.00;;;;;;5062201;28;20052;-76
2023/09/26 12:34:18;;;;;;;16.95;9.50;;;24.90;1.00;;;;;;5046505;28;20052;-76